Time;durP1;ratioP1;P1;durP2;ratioP2;P2;SDS_P1;SDS_P2;PMS_P1;PMS_P2;Temp;Humidity;BMP_temperature;BMP_pressure;BME280_temperature;BME280_humidity;BME280_pressure;Samples;Min_cycle;Max_cycle;Signal;HPM_P1;HPM_P2
2021/06/19 11:33:21;;;;;;;6.65;4.72;;;;;;;;;;4948391;29;20057;-39
2021/06/19 11:35:48;;;;;;;5.25;4.03;;;;;;;;;;4970926;28;20027;-39
2021/06/19 11:38:15;;;;;;;6.20;4.15;;;;;;;;;;4953201;28;20034;-39
2021/06/19 11:40:42;;;;;;;6.05;4.30;;;;;;;;;;4970971;28;20102;-39
2021/06/19 11:43:09;;;;;;;7.50;3.92;;;;;;;;;;4970731;28;20022;-39
2021/06/19 11:45:36;;;;;;;8.65;4.00;;;;;;;;;;4957245;28;20031;-39
2021/06/19 11:48:07;;;;;;;4.97;3.53;;;;;;;;;;4971278;28;20431;-39
2021/06/19 11:50:34;;;;;;;9.32;3.67;;;;;;;;;;4953394;28;20073;-39
2021/06/19 11:53:00;;;;;;;;;;;;;;;;;;4971222;28;20109;-44
2021/06/19 11:55:26;;;;;;;5.57;3.40;;;;;;;;;;4970763;28;20305;-44
2021/06/19 11:58:01;;;;;;;7.55;3.45;;;;;;;;;;4970655;28;20301;-43
2021/06/19 12:00:28;;;;;;;3.85;3.45;;;;;;;;;;4971139;28;20023;-43
2021/06/19 12:02:54;;;;;;;4.97;3.40;;;;;;;;;;4959089;28;20035;-44
2021/06/19 12:05:23;;;;;;;6.32;3.25;;;;;;;;;;4975817;28;20113;-44
2021/06/19 12:07:53;;;;;;;4.00;2.97;;;;;;;;;;4976694;28;20049;-43
2021/06/19 12:10:25;;;;;;;3.53;2.65;;;;;;;;;;4970988;28;20026;-44
2021/06/19 12:13:07;;;;;;;4.00;3.38;;;;;;;;;;4957473;28;20031;-43
2021/06/19 12:15:34;;;;;;;4.50;3.00;;;;;;;;;;4944671;29;20027;-45
2021/06/19 12:18:05;;;;;;;4.65;2.88;;;;;;;;;;4965229;28;20076;-43
2021/06/19 12:20:31;;;;;;;4.88;3.17;;;;;;;;;;4970377;28;20027;-44
2021/06/19 12:22:57;;;;;;;5.18;3.05;;;;;;;;;;4970324;28;20027;-44
2021/06/19 12:25:36;;;;;;;4.07;2.80;;;;;;;;;;4970800;28;20018;-44
2021/06/19 12:28:03;;;;;;;4.57;2.85;;;;;;;;;;4970059;28;20084;-44
2021/06/19 12:30:29;;;;;;;5.05;3.10;;;;;;;;;;4963670;28;20411;-44
2021/06/19 12:32:58;;;;;;;4.40;3.05;;;;;;;;;;4968802;28;20023;-43
2021/06/19 12:35:27;;;;;;;3.40;2.67;;;;;;;;;;4969010;28;20033;-43
2021/06/19 12:38:00;;;;;;;4.93;3.10;;;;;;;;;;4956144;28;20030;-43
2021/06/19 12:40:33;;;;;;;3.38;2.40;;;;;;;;;;4970687;28;20035;-43
2021/06/19 21:12:18;;;;;;;3.97;1.70;;;;;;;;;;5685375;22;20050;-41
2021/06/19 21:14:44;;;;;;;5.20;1.80;;;;;;;;;;5005697;28;20033;-41
2021/06/19 21:17:11;;;;;;;3.15;1.80;;;;;;;;;;5012127;28;20022;-42
2021/06/19 21:19:37;;;;;;;4.75;1.83;;;;;;;;;;5012395;28;20022;-40
2021/06/19 21:22:03;;;;;;;8.20;2.20;;;;;;;;;;5010706;28;20133;-40
2021/06/19 21:24:30;;;;;;;2.97;1.73;;;;;;;;;;5013196;28;20505;-40
2021/06/19 21:26:56;;;;;;;4.13;1.70;;;;;;;;;;5009016;28;20096;-39
2021/06/19 21:29:22;;;;;;;4.53;1.77;;;;;;;;;;5022506;28;20485;-40
2021/06/19 21:31:49;;;;;;;3.60;2.10;;;;;;;;;;5012250;28;20036;-40
2021/06/19 21:34:15;;;;;;;;;;;;;;;;;;4985238;28;20038;-40
2021/06/19 21:36:42;;;;;;;3.30;1.90;;;;;;;;;;5014085;28;19975;-40
2021/06/19 21:39:08;;;;;;;5.70;2.20;;;;;;;;;;5011441;28;20288;-39
2021/06/19 21:41:34;;;;;;;4.77;2.03;;;;;;;;;;4985687;28;20355;-40
2021/06/19 21:44:01;;;;;;;5.97;2.00;;;;;;;;;;5011572;28;20139;-39
2021/06/19 21:46:27;;;;;;;3.03;2.00;;;;;;;;;;4985386;28;20291;-40
2021/06/19 21:48:53;;;;;;;5.13;2.07;;;;;;;;;;5022058;28;20064;-39
2021/06/19 21:51:21;;;;;;;3.13;2.00;;;;;;;;;;5022310;28;20022;-40
2021/06/19 21:53:47;;;;;;;4.82;1.80;;;;;;;;;;4995301;28;20022;-40
2021/06/19 21:56:13;;;;;;;4.53;1.90;;;;;;;;;;4993391;28;20049;-39
2021/06/19 21:58:40;;;;;;;5.03;2.17;;;;;;;;;;4992633;28;20060;-38
2021/06/19 22:01:06;;;;;;;3.53;1.92;;;;;;;;;;4991035;28;20426;-39
2021/06/19 22:03:32;;;;;;;3.42;1.80;;;;;;;;;;4991350;28;20142;-40
2021/06/19 22:05:58;;;;;;;4.05;2.30;;;;;;;;;;5006068;28;20038;-39
2021/06/19 22:08:25;;;;;;;4.33;2.00;;;;;;;;;;4999227;28;20037;-39
2021/06/19 22:10:51;;;;;;;7.27;2.57;;;;;;;;;;5008221;28;20466;-39
